Terminal Aerodrome Forecast
Issued by NWS

Home | Current Version | Previous Version | Text Only | Print | Product List | Glossary On
Versions: 1 2 3 4 5 6 7 8 9 10 11 12 13 14 15 16 17
000
FTAK31 PAJN 220526
TAFAKT
TAF
PAKT 220526Z 2206/2306 14014G20KT 3SM RA BR SCT005 OVC015
      WS020/17040KT
     FM220900 14015G25KT 2SM RA BR SCT007 OVC015 WS020/16045KT
     FM221700 13013G20KT 3SM -RA BR OVC015 WS020/17030KT
     FM222200 14010KT 5SM -SHRA BR OVC020
     FM230100 12008KT P6SM VCSH OVC030
      AMD LTD TO CLD VIS AND WIND 2206/2215=

USA.gov is the U.S. government's official web portal to all federal, state and local government web resources and services.